Honghai — XUBU8 — position and weather

sailwx.info

Track history (hours):
 
Tides and Currents Weather Stations Pressure Air Temp Water Temp Dewpoint Dewpoint Depression Visibility Wind Speed Wind Dir Waves Ship Positions

Honghai

Last reported at 2015-May-28 05:20 UTC. Time now 2015-May-29 10:20 UTC.
Position N 33°54' E 134°43'.

Length 72 m; draft 4.5 m.

Type: Cargo ship. MMSI: 515501000.

Date/timePositionNaut miles runAvg speedWind from/ knotsBaromVisibWave heightAir tempDewpointWater temp
2015-May-28 05:20N 33°54' E 134°43'0 0.0
2015-May-28 04:21N 33°54' E 134°43'  
2015-May-22 20:33N 36°59' E 123°01'1111.0
2015-May-22 19:33N 37°08' E 122°52'1111.2
2015-May-22 18:33N 37°18' E 122°47'3010.0
2015-May-22 15:32N 37°38' E 122°18'92 9.2
2015-May-22 05:27N 38°02' E 120°25'8 9.2
2015-May-22 04:33N 37°55' E 120°20'10 9.6
2015-May-22 03:34N 37°46' E 120°14'8 7.8
2015-May-22 02:33N 37°38' E 120°15'3 3.3
2015-May-22 01:31N 37°39' E 120°19'0 0.0
2015-May-22 00:31N 37°39' E 120°19'0 0.0
2015-May-21 23:31N 37°39' E 120°19'0 0.0
2015-May-21 22:31N 37°39' E 120°19'0 0.0
2015-May-21 21:25N 37°39' E 120°19'0 0.0
2015-May-21 20:31N 37°39' E 120°19'0 0.0
2015-May-21 19:31N 37°39' E 120°19'0 0.0
2015-May-21 18:31N 37°39' E 120°19'0 0.0
2015-May-21 17:31N 37°39' E 120°19'0 0.0
2015-May-21 16:25N 37°39' E 120°19'0 0.0
2015-May-21 15:25N 37°39' E 120°19'0 0.0
2015-May-21 14:31N 37°39' E 120°19'0 0.0
2015-May-21 13:13N 37°39' E 120°19'0 0.0
2015-May-21 12:31N 37°39' E 120°19'0 0.0
2015-May-21 11:31N 37°39' E 120°19'0 0.0
2015-May-21 10:31N 37°39' E 120°19'0 0.0
2015-May-21 09:31N 37°39' E 120°19'0 0.0
2015-May-21 08:31N 37°39' E 120°19'0 0.0
2015-May-21 07:31N 37°39' E 120°19'0 0.0
2015-May-21 06:33N 37°39' E 120°19'6 5.8
2015-May-21 05:33N 37°40' E 120°12'0 0.2
2015-May-21 04:25N 37°40' E 120°12'0 0.0
2015-May-21 03:13N 37°40' E 120°12'0 0.0
2015-May-21 02:19N 37°40' E 120°12'0 0.0
2015-May-21 01:25N 37°40' E 120°12'0 0.1
2015-May-21 00:31N 37°40' E 120°12'0 0.0
2015-May-20 23:13N 37°40' E 120°12'0 0.0
2015-May-20 22:31N 37°40' E 120°12'3 2.7
2015-May-20 21:32N 37°42' E 120°12'9 8.9
2015-May-20 20:33N 37°50' E 120°17'17 8.3
2015-May-20 18:33N 38°03' E 120°30'9210.2
2015-May-20 09:33N 37°40' E 122°23'1010.2
2015-May-20 08:33N 37°37' E 122°35'35310.1
2015-May-18 21:26N 31°44' E 122°55'12510.4
2015-May-18 09:26N 29°40' E 122°35'11 8.4
2015-May-18 08:04N 29°30' E 122°28'  
Track history (hours):
 
Tides and Currents Weather Stations Pressure Air Temp Water Temp Dewpoint Dewpoint Depression Visibility Wind Speed Wind Dir Waves Ship Positions

Honghai

Last reported at 2015-May-28 05:20 UTC. Time now 2015-May-29 10:20 UTC.
Position N 33°54' E 134°43'.

Length 72 m; draft 4.5 m.

Type: Cargo ship. MMSI: 515501000.

Date/timePositionNaut miles runAvg speedWind from/ knotsBaromVisibWave heightAir tempDewpointWater temp
2015-May-28 05:20N 33°54' E 134°43'0 0.0
2015-May-28 04:21N 33°54' E 134°43'  
2015-May-22 20:33N 36°59' E 123°01'1111.0
2015-May-22 19:33N 37°08' E 122°52'1111.2
2015-May-22 18:33N 37°18' E 122°47'3010.0
2015-May-22 15:32N 37°38' E 122°18'92 9.2
2015-May-22 05:27N 38°02' E 120°25'8 9.2
2015-May-22 04:33N 37°55' E 120°20'10 9.6
2015-May-22 03:34N 37°46' E 120°14'8 7.8
2015-May-22 02:33N 37°38' E 120°15'3 3.3
2015-May-22 01:31N 37°39' E 120°19'0 0.0
2015-May-22 00:31N 37°39' E 120°19'0 0.0
2015-May-21 23:31N 37°39' E 120°19'0 0.0
2015-May-21 22:31N 37°39' E 120°19'0 0.0
2015-May-21 21:25N 37°39' E 120°19'0 0.0
2015-May-21 20:31N 37°39' E 120°19'0 0.0
2015-May-21 19:31N 37°39' E 120°19'0 0.0
2015-May-21 18:31N 37°39' E 120°19'0 0.0
2015-May-21 17:31N 37°39' E 120°19'0 0.0
2015-May-21 16:25N 37°39' E 120°19'0 0.0
2015-May-21 15:25N 37°39' E 120°19'0 0.0
2015-May-21 14:31N 37°39' E 120°19'0 0.0
2015-May-21 13:13N 37°39' E 120°19'0 0.0
2015-May-21 12:31N 37°39' E 120°19'0 0.0
2015-May-21 11:31N 37°39' E 120°19'0 0.0
2015-May-21 10:31N 37°39' E 120°19'0 0.0
2015-May-21 09:31N 37°39' E 120°19'0 0.0
2015-May-21 08:31N 37°39' E 120°19'0 0.0
2015-May-21 07:31N 37°39' E 120°19'0 0.0
2015-May-21 06:33N 37°39' E 120°19'6 5.8
2015-May-21 05:33N 37°40' E 120°12'0 0.2
2015-May-21 04:25N 37°40' E 120°12'0 0.0
2015-May-21 03:13N 37°40' E 120°12'0 0.0
2015-May-21 02:19N 37°40' E 120°12'0 0.0
2015-May-21 01:25N 37°40' E 120°12'0 0.1
2015-May-21 00:31N 37°40' E 120°12'0 0.0
2015-May-20 23:13N 37°40' E 120°12'0 0.0
2015-May-20 22:31N 37°40' E 120°12'3 2.7
2015-May-20 21:32N 37°42' E 120°12'9 8.9
2015-May-20 20:33N 37°50' E 120°17'17 8.3
2015-May-20 18:33N 38°03' E 120°30'9210.2
2015-May-20 09:33N 37°40' E 122°23'1010.2
2015-May-20 08:33N 37°37' E 122°35'35310.1
2015-May-18 21:26N 31°44' E 122°55'12510.4
2015-May-18 09:26N 29°40' E 122°35'11 8.4
2015-May-18 08:04N 29°30' E 122°28'  

Dump ship's entire track history